Nashville, Tennessee
Traffic Map
Current Weather Conditions
Nashville, Tennessee
Broken Clouds
Broken Clouds
23°
Feels Like: 23°
Wind Chill: 23° Ceiling: 4600
Heat Index: 23° Visibility: 10mi
Dew Point: 21° Wind: 5mph
Humidity: 85% Direction: 180° (S)
Pressure: 30.06in Gusts: 0mph
Raw Report DataKBNA 021053Z 18004KT 10SM BKN046 BKN250 23/21 A3006 RMK AO2 SLP172 T02330206
Traffic Incident Summary
Active as of:
Severity:
Category:
InformationThere was an issue retrieving the traffic information for this location. Please try a different location or try again shortly.
Advertisements
Track Severe Weather on mobile